TRA2607 EHRD-LEJR
Flight info
| Callsign | TRA2607 |
|---|---|
| Flight time | 2h 36m |
| Altitude | 35000 |
| Route | WOODY N872 MEDIL DCT RESMI UN857 DISAK DCT TUDRA DCT OSMOB DCT ARVID T424 PPN N857 NOLSA N10 BAN N857 HIJ |
| Aircraft | B738/M-SDE2E3FGHIJ1RWXYZ/LB1 |
Departure
| Time | 2026-05-08 14:48 |
|---|---|
| Airport | Rotterdam The Hague Airport (EHRD) |
Arrival
| Time | 2026-05-08 17:24 |
|---|---|
| Airport | Jerez Airport (LEJR) |
| Time | Latitude | Longitude | Altitude | Speed | Heading |
|---|---|---|---|---|---|
| 2026-05-08 14:18 | 51.94990 | 4.43451 | -7 ft | 0 kts | 327° |
| 2026-05-08 14:42 | 51.94997 | 4.43444 | -7 ft | 4 kts | 326° |
| 2026-05-08 14:42 | 51.95034 | 4.43446 | -7 ft | 6 kts | 34° |
| 2026-05-08 14:43 | 51.95061 | 4.43502 | -7 ft | 6 kts | 56° |
| 2026-05-08 14:43 | 51.95085 | 4.43558 | -7 ft | 6 kts | 44° |
| 2026-05-08 14:43 | 51.95124 | 4.43556 | -7 ft | 6 kts | 337° |
| 2026-05-08 14:43 | 51.95160 | 4.43522 | -7 ft | 6 kts | 328° |
| 2026-05-08 14:44 | 51.95200 | 4.43479 | -6 ft | 7 kts | 326° |
| 2026-05-08 14:44 | 51.95237 | 4.43427 | -6 ft | 7 kts | 288° |
| 2026-05-08 14:44 | 51.95221 | 4.43353 | -6 ft | 7 kts | 238° |
| 2026-05-08 14:44 | 51.95195 | 4.43287 | -6 ft | 7 kts | 237° |
| 2026-05-08 14:45 | 51.95165 | 4.43209 | -6 ft | 10 kts | 240° |
| 2026-05-08 14:45 | 51.95128 | 4.43096 | -6 ft | 11 kts | 244° |
| 2026-05-08 14:45 | 51.95108 | 4.43005 | -6 ft | 6 kts | 264° |
| 2026-05-08 14:45 | 51.95129 | 4.42932 | -6 ft | 10 kts | 317° |
| 2026-05-08 14:46 | 51.95196 | 4.42860 | -6 ft | 9 kts | 345° |
| 2026-05-08 14:46 | 51.95242 | 4.42911 | -6 ft | 0 kts | 57° |
| 2026-05-08 14:47 | 51.95250 | 4.42930 | -6 ft | 18 kts | 56° |
| 2026-05-08 14:47 | 51.95474 | 4.43485 | -6 ft | 98 kts | 57° |
| 2026-05-08 14:48 | 51.95975 | 4.44729 | 19 ft | 161 kts | 56° |
| 2026-05-08 14:48 | 51.96593 | 4.46230 | 872 ft | 157 kts | 57° |
| 2026-05-08 14:48 | 51.96995 | 4.47222 | 1320 ft | 169 kts | 57° |
| 2026-05-08 14:48 | 51.97621 | 4.48826 | 2080 ft | 180 kts | 59° |
| 2026-05-08 14:49 | 51.98263 | 4.50749 | 2412 ft | 207 kts | 64° |
| 2026-05-08 14:49 | 51.98921 | 4.52977 | 2675 ft | 228 kts | 64° |
| 2026-05-08 14:49 | 51.99518 | 4.55394 | 3049 ft | 244 kts | 79° |
| 2026-05-08 14:49 | 51.99556 | 4.58226 | 3608 ft | 256 kts | 98° |
| 2026-05-08 14:50 | 51.99059 | 4.61021 | 4424 ft | 259 kts | 108° |
| 2026-05-08 14:50 | 51.98222 | 4.63612 | 5181 ft | 265 kts | 135° |
| 2026-05-08 14:50 | 51.96670 | 4.65209 | 6036 ft | 266 kts | 154° |
| 2026-05-08 14:50 | 51.94958 | 4.66422 | 6760 ft | 272 kts | 164° |
| 2026-05-08 14:51 | 51.93068 | 4.66457 | 7476 ft | 277 kts | 194° |
| 2026-05-08 14:51 | 51.91341 | 4.65110 | 8248 ft | 279 kts | 218° |
| 2026-05-08 14:51 | 51.90019 | 4.62782 | 8970 ft | 283 kts | 234° |
| 2026-05-08 14:51 | 51.88905 | 4.60131 | 9688 ft | 287 kts | 236° |
| 2026-05-08 14:52 | 51.87779 | 4.57442 | 10392 ft | 291 kts | 231° |
| 2026-05-08 14:52 | 51.84056 | 4.54235 | 10824 ft | 332 kts | 194° |
| 2026-05-08 14:52 | 51.81755 | 4.53305 | 11098 ft | 349 kts | 193° |
| 2026-05-08 14:53 | 51.79367 | 4.52375 | 11691 ft | 355 kts | 194° |
| 2026-05-08 14:53 | 51.76970 | 4.51435 | 12431 ft | 356 kts | 194° |
| 2026-05-08 14:53 | 51.74552 | 4.50472 | 13138 ft | 358 kts | 194° |
| 2026-05-08 14:53 | 51.72121 | 4.49491 | 13773 ft | 362 kts | 194° |
| 2026-05-08 14:54 | 51.69673 | 4.48493 | 14427 ft | 364 kts | 195° |
| 2026-05-08 14:54 | 51.67203 | 4.47482 | 15074 ft | 367 kts | 195° |
| 2026-05-08 14:54 | 51.64719 | 4.46464 | 15693 ft | 370 kts | 195° |
| 2026-05-08 14:54 | 51.62212 | 4.45435 | 16278 ft | 373 kts | 195° |
| 2026-05-08 14:55 | 51.59685 | 4.44397 | 16892 ft | 376 kts | 195° |
| 2026-05-08 14:55 | 51.57146 | 4.43355 | 17472 ft | 378 kts | 195° |
| 2026-05-08 14:55 | 51.54588 | 4.42307 | 18046 ft | 381 kts | 195° |
| 2026-05-08 14:55 | 51.52013 | 4.41254 | 18589 ft | 384 kts | 195° |
| 2026-05-08 14:56 | 51.49405 | 4.40188 | 19109 ft | 387 kts | 195° |
| 2026-05-08 14:56 | 51.46784 | 4.39119 | 19629 ft | 389 kts | 195° |
| 2026-05-08 14:56 | 51.44154 | 4.38047 | 20151 ft | 392 kts | 195° |
| 2026-05-08 14:56 | 51.41497 | 4.36966 | 20649 ft | 395 kts | 195° |
| 2026-05-08 14:57 | 51.38884 | 4.35576 | 21104 ft | 397 kts | 204° |
| 2026-05-08 14:57 | 51.36389 | 4.33669 | 21583 ft | 398 kts | 207° |
| 2026-05-08 14:57 | 51.33904 | 4.31679 | 22054 ft | 401 kts | 207° |
| 2026-05-08 14:57 | 51.31385 | 4.29723 | 22471 ft | 404 kts | 206° |
| 2026-05-08 14:58 | 51.28843 | 4.27777 | 22897 ft | 407 kts | 206° |
| 2026-05-08 14:58 | 51.26318 | 4.25853 | 23309 ft | 409 kts | 206° |
| 2026-05-08 14:58 | 51.23746 | 4.23899 | 23737 ft | 411 kts | 206° |
| 2026-05-08 14:58 | 51.21160 | 4.21933 | 24136 ft | 413 kts | 206° |
| 2026-05-08 14:59 | 51.18556 | 4.19958 | 24517 ft | 415 kts | 206° |
| 2026-05-08 14:59 | 51.13188 | 4.16430 | 25224 ft | 421 kts | 200° |
| 2026-05-08 14:59 | 51.10407 | 4.14936 | 25577 ft | 423 kts | 199° |
| 2026-05-08 15:00 | 51.07601 | 4.13456 | 25935 ft | 424 kts | 199° |
| 2026-05-08 15:00 | 51.04793 | 4.11966 | 26283 ft | 426 kts | 199° |
| 2026-05-08 15:00 | 51.01965 | 4.10446 | 26597 ft | 428 kts | 200° |
| 2026-05-08 15:00 | 50.99135 | 4.08911 | 26910 ft | 430 kts | 200° |
| 2026-05-08 15:01 | 50.96338 | 4.07358 | 27215 ft | 432 kts | 201° |
| 2026-05-08 15:01 | 50.93533 | 4.05621 | 27537 ft | 433 kts | 203° |
| 2026-05-08 15:01 | 50.90750 | 4.03797 | 27854 ft | 434 kts | 204° |
| 2026-05-08 15:01 | 50.87957 | 4.01940 | 28126 ft | 436 kts | 204° |
| 2026-05-08 15:02 | 50.85149 | 4.00079 | 28389 ft | 438 kts | 203° |
| 2026-05-08 15:02 | 50.82326 | 3.98224 | 28647 ft | 440 kts | 203° |
| 2026-05-08 15:02 | 50.79499 | 3.96383 | 29012 ft | 439 kts | 203° |
| 2026-05-08 15:02 | 50.76686 | 3.94566 | 29445 ft | 436 kts | 202° |
| 2026-05-08 15:03 | 50.73881 | 3.92763 | 29831 ft | 434 kts | 202° |
| 2026-05-08 15:03 | 50.71082 | 3.90967 | 30150 ft | 435 kts | 202° |
| 2026-05-08 15:03 | 50.68277 | 3.89171 | 30477 ft | 434 kts | 202° |
| 2026-05-08 15:03 | 50.65480 | 3.87381 | 30775 ft | 434 kts | 203° |
| 2026-05-08 15:04 | 50.62677 | 3.85587 | 31079 ft | 434 kts | 203° |
| 2026-05-08 15:04 | 50.59878 | 3.83799 | 31437 ft | 432 kts | 203° |
| 2026-05-08 15:04 | 50.57097 | 3.82026 | 31758 ft | 431 kts | 203° |
| 2026-05-08 15:04 | 50.54313 | 3.80252 | 31986 ft | 433 kts | 203° |
| 2026-05-08 15:05 | 50.51517 | 3.78473 | 32228 ft | 433 kts | 203° |
| 2026-05-08 15:05 | 50.48729 | 3.76701 | 32543 ft | 432 kts | 203° |
| 2026-05-08 15:05 | 50.45946 | 3.74934 | 32859 ft | 430 kts | 203° |
| 2026-05-08 15:05 | 50.43169 | 3.73173 | 33108 ft | 430 kts | 203° |
| 2026-05-08 15:06 | 50.40394 | 3.71416 | 33339 ft | 430 kts | 204° |
| 2026-05-08 15:06 | 50.37616 | 3.69659 | 33549 ft | 431 kts | 204° |
| 2026-05-08 15:06 | 50.34842 | 3.67906 | 33792 ft | 430 kts | 204° |
| 2026-05-08 15:06 | 50.32134 | 3.65927 | 34024 ft | 429 kts | 208° |
| 2026-05-08 15:07 | 50.29489 | 3.63776 | 34266 ft | 428 kts | 209° |
| 2026-05-08 15:07 | 50.26864 | 3.61590 | 34517 ft | 427 kts | 210° |
| 2026-05-08 15:07 | 50.24242 | 3.59396 | 34705 ft | 428 kts | 210° |
| 2026-05-08 15:07 | 50.21607 | 3.57199 | 34879 ft | 429 kts | 210° |
| 2026-05-08 15:08 | 50.18972 | 3.55015 | 35048 ft | 429 kts | 210° |
| 2026-05-08 15:08 | 50.17220 | 3.53568 | 35059 ft | 432 kts | 210° |
| 2026-05-08 15:08 | 50.10944 | 3.48417 | 35068 ft | 440 kts | 209° |
| 2026-05-08 15:09 | 50.05472 | 3.43953 | 35070 ft | 446 kts | 209° |
| 2026-05-08 15:09 | 49.99956 | 3.39470 | 35061 ft | 448 kts | 209° |
| 2026-05-08 15:10 | 49.94422 | 3.34983 | 35055 ft | 449 kts | 209° |
| 2026-05-08 15:10 | 49.89811 | 3.31253 | 35056 ft | 450 kts | 209° |
| 2026-05-08 15:11 | 49.84260 | 3.26770 | 35047 ft | 450 kts | 209° |
| 2026-05-08 15:11 | 49.78707 | 3.22299 | 35049 ft | 449 kts | 210° |
| 2026-05-08 15:12 | 49.73164 | 3.17849 | 35041 ft | 449 kts | 210° |
| 2026-05-08 15:12 | 49.67630 | 3.13418 | 35048 ft | 447 kts | 210° |
| 2026-05-08 15:13 | 49.62103 | 3.09004 | 35048 ft | 448 kts | 210° |
| 2026-05-08 15:13 | 49.56572 | 3.04595 | 35044 ft | 447 kts | 210° |
| 2026-05-08 15:14 | 49.51044 | 3.00199 | 35046 ft | 447 kts | 210° |
| 2026-05-08 15:14 | 49.45517 | 2.95818 | 35049 ft | 447 kts | 210° |
| 2026-05-08 15:15 | 49.39992 | 2.91451 | 35046 ft | 447 kts | 210° |
| 2026-05-08 15:15 | 49.34498 | 2.87118 | 35046 ft | 447 kts | 210° |
| 2026-05-08 15:16 | 49.28972 | 2.82770 | 35049 ft | 447 kts | 210° |
| 2026-05-08 15:16 | 49.23717 | 2.78645 | 35046 ft | 447 kts | 210° |
| 2026-05-08 15:17 | 49.18188 | 2.74316 | 35047 ft | 447 kts | 210° |
| 2026-05-08 15:17 | 49.12651 | 2.69992 | 35047 ft | 447 kts | 210° |
| 2026-05-08 15:18 | 49.07101 | 2.65672 | 35041 ft | 448 kts | 210° |
| 2026-05-08 15:18 | 49.01548 | 2.61358 | 35048 ft | 448 kts | 210° |
| 2026-05-08 15:19 | 48.95987 | 2.57047 | 35048 ft | 449 kts | 211° |
| 2026-05-08 15:19 | 48.90402 | 2.52729 | 35047 ft | 451 kts | 211° |
| 2026-05-08 15:20 | 48.84790 | 2.48399 | 35042 ft | 454 kts | 211° |
| 2026-05-08 15:20 | 48.79140 | 2.44052 | 35033 ft | 456 kts | 212° |
| 2026-05-08 15:21 | 48.73498 | 2.39725 | 35026 ft | 458 kts | 212° |
| 2026-05-08 15:21 | 48.67804 | 2.35369 | 35022 ft | 459 kts | 212° |
| 2026-05-08 15:22 | 48.62108 | 2.31024 | 35018 ft | 458 kts | 212° |
| 2026-05-08 15:22 | 48.56413 | 2.26687 | 35011 ft | 458 kts | 212° |
| 2026-05-08 15:23 | 48.50724 | 2.22367 | 35018 ft | 457 kts | 212° |
| 2026-05-08 15:23 | 48.45036 | 2.18058 | 35019 ft | 457 kts | 212° |
| 2026-05-08 15:24 | 48.39364 | 2.13771 | 35013 ft | 456 kts | 212° |
| 2026-05-08 15:24 | 48.33687 | 2.09494 | 35021 ft | 455 kts | 212° |
| 2026-05-08 15:25 | 48.28030 | 2.05239 | 35013 ft | 455 kts | 212° |
| 2026-05-08 15:25 | 48.22372 | 2.00996 | 35014 ft | 455 kts | 212° |
| 2026-05-08 15:26 | 48.16717 | 1.96767 | 35015 ft | 454 kts | 212° |
| 2026-05-08 15:26 | 48.11060 | 1.92545 | 35009 ft | 454 kts | 213° |
| 2026-05-08 15:27 | 48.05445 | 1.88365 | 35004 ft | 454 kts | 213° |
| 2026-05-08 15:27 | 47.99786 | 1.84164 | 34998 ft | 454 kts | 212° |
| 2026-05-08 15:28 | 47.94124 | 1.79971 | 35001 ft | 454 kts | 212° |
| 2026-05-08 15:28 | 47.88457 | 1.75783 | 34997 ft | 454 kts | 212° |
| 2026-05-08 15:29 | 47.82797 | 1.71609 | 34985 ft | 454 kts | 212° |
| 2026-05-08 15:29 | 47.77138 | 1.67449 | 34991 ft | 453 kts | 212° |
| 2026-05-08 15:30 | 47.71477 | 1.63296 | 34996 ft | 453 kts | 212° |
| 2026-05-08 15:30 | 47.65822 | 1.59159 | 34985 ft | 453 kts | 212° |
| 2026-05-08 15:31 | 47.60175 | 1.55037 | 34981 ft | 452 kts | 212° |
| 2026-05-08 15:31 | 47.54529 | 1.50924 | 34974 ft | 452 kts | 211° |
| 2026-05-08 15:32 | 47.48890 | 1.46829 | 34974 ft | 451 kts | 211° |
| 2026-05-08 15:32 | 47.43262 | 1.42751 | 34969 ft | 450 kts | 211° |
| 2026-05-08 15:33 | 47.37642 | 1.38688 | 34972 ft | 449 kts | 211° |
| 2026-05-08 15:33 | 47.32035 | 1.34644 | 34973 ft | 448 kts | 211° |
| 2026-05-08 15:34 | 47.26445 | 1.30621 | 34969 ft | 447 kts | 211° |
| 2026-05-08 15:34 | 47.20859 | 1.26612 | 34962 ft | 446 kts | 210° |
| 2026-05-08 15:35 | 47.15303 | 1.22633 | 34962 ft | 446 kts | 210° |
| 2026-05-08 15:35 | 47.09737 | 1.18656 | 34962 ft | 445 kts | 210° |
| 2026-05-08 15:36 | 47.04174 | 1.14691 | 34965 ft | 444 kts | 210° |
| 2026-05-08 15:36 | 46.98621 | 1.10741 | 34959 ft | 443 kts | 210° |
| 2026-05-08 15:37 | 46.93084 | 1.06813 | 34962 ft | 442 kts | 210° |
| 2026-05-08 15:37 | 46.87547 | 1.02895 | 34964 ft | 442 kts | 210° |
| 2026-05-08 15:38 | 46.82016 | 0.98988 | 34969 ft | 441 kts | 210° |
| 2026-05-08 15:38 | 46.76483 | 0.95089 | 34957 ft | 442 kts | 209° |
| 2026-05-08 15:39 | 46.70951 | 0.91200 | 34950 ft | 441 kts | 209° |
| 2026-05-08 15:39 | 46.65453 | 0.87343 | 34955 ft | 441 kts | 209° |
| 2026-05-08 15:40 | 46.59924 | 0.83473 | 34955 ft | 441 kts | 209° |
| 2026-05-08 15:40 | 46.54391 | 0.79611 | 34953 ft | 441 kts | 208° |
| 2026-05-08 15:41 | 46.48866 | 0.75761 | 34951 ft | 440 kts | 208° |
| 2026-05-08 15:41 | 46.43342 | 0.71922 | 34949 ft | 440 kts | 208° |
| 2026-05-08 15:42 | 46.37824 | 0.68098 | 34943 ft | 439 kts | 208° |
| 2026-05-08 15:42 | 46.32314 | 0.64286 | 34943 ft | 439 kts | 208° |
| 2026-05-08 15:43 | 46.26813 | 0.60487 | 34941 ft | 438 kts | 208° |
| 2026-05-08 15:43 | 46.21314 | 0.56695 | 34944 ft | 438 kts | 208° |
| 2026-05-08 15:44 | 46.15820 | 0.52920 | 34946 ft | 437 kts | 207° |
| 2026-05-08 15:44 | 46.10328 | 0.49155 | 34943 ft | 437 kts | 207° |
| 2026-05-08 15:45 | 46.04837 | 0.45398 | 34939 ft | 436 kts | 207° |
| 2026-05-08 15:45 | 45.99358 | 0.41658 | 34948 ft | 436 kts | 207° |
| 2026-05-08 15:46 | 45.93896 | 0.37937 | 34950 ft | 437 kts | 207° |
| 2026-05-08 15:46 | 45.88406 | 0.34207 | 34947 ft | 436 kts | 207° |
| 2026-05-08 15:47 | 45.82919 | 0.30484 | 34943 ft | 436 kts | 207° |
| 2026-05-08 15:47 | 45.77436 | 0.26772 | 34932 ft | 436 kts | 207° |
| 2026-05-08 15:48 | 45.69195 | 0.21211 | 34932 ft | 436 kts | 207° |
| 2026-05-08 15:49 | 45.63705 | 0.17516 | 34937 ft | 435 kts | 206° |
| 2026-05-08 15:49 | 45.58256 | 0.13856 | 34936 ft | 435 kts | 206° |
| 2026-05-08 15:50 | 45.52755 | 0.10169 | 34936 ft | 436 kts | 206° |
| 2026-05-08 15:50 | 45.47266 | 0.06498 | 34926 ft | 436 kts | 206° |
| 2026-05-08 15:51 | 45.41763 | 0.02826 | 34930 ft | 436 kts | 206° |
| 2026-05-08 15:51 | 45.36261 | -0.00838 | 34921 ft | 437 kts | 206° |
| 2026-05-08 15:52 | 45.30773 | -0.04486 | 34924 ft | 434 kts | 204° |
| 2026-05-08 15:52 | 45.25299 | -0.08115 | 34912 ft | 434 kts | 203° |
| 2026-05-08 15:53 | 45.19835 | -0.11730 | 34916 ft | 434 kts | 203° |
| 2026-05-08 15:53 | 45.14357 | -0.15346 | 34916 ft | 434 kts | 202° |
| 2026-05-08 15:54 | 45.08886 | -0.18948 | 34917 ft | 434 kts | 202° |
| 2026-05-08 15:54 | 45.03445 | -0.22525 | 34919 ft | 434 kts | 202° |
| 2026-05-08 15:55 | 44.97959 | -0.26123 | 34918 ft | 435 kts | 202° |
| 2026-05-08 15:55 | 44.89719 | -0.31514 | 34916 ft | 436 kts | 202° |
| 2026-05-08 15:56 | 44.84215 | -0.35106 | 34914 ft | 436 kts | 202° |
| 2026-05-08 15:56 | 44.78706 | -0.38693 | 34917 ft | 436 kts | 202° |
| 2026-05-08 15:57 | 44.73193 | -0.42275 | 34917 ft | 436 kts | 202° |
| 2026-05-08 15:57 | 44.67682 | -0.45848 | 34912 ft | 436 kts | 202° |
| 2026-05-08 15:58 | 44.62165 | -0.49417 | 34917 ft | 436 kts | 202° |
| 2026-05-08 15:58 | 44.56651 | -0.52978 | 34918 ft | 436 kts | 202° |
| 2026-05-08 15:59 | 44.52068 | -0.55932 | 34916 ft | 436 kts | 202° |
| 2026-05-08 15:59 | 44.46553 | -0.59480 | 34915 ft | 437 kts | 202° |
| 2026-05-08 16:00 | 44.41027 | -0.63026 | 34905 ft | 437 kts | 202° |
| 2026-05-08 16:00 | 44.35504 | -0.66564 | 34910 ft | 437 kts | 202° |
| 2026-05-08 16:01 | 44.29971 | -0.70101 | 34909 ft | 437 kts | 202° |
| 2026-05-08 16:01 | 44.24446 | -0.73625 | 34905 ft | 437 kts | 201° |
| 2026-05-08 16:02 | 44.18919 | -0.77141 | 34910 ft | 436 kts | 201° |
| 2026-05-08 16:02 | 44.13392 | -0.80652 | 34907 ft | 436 kts | 201° |
| 2026-05-08 16:03 | 44.07869 | -0.84155 | 34907 ft | 436 kts | 201° |
| 2026-05-08 16:03 | 44.02347 | -0.87648 | 34907 ft | 436 kts | 201° |
| 2026-05-08 16:04 | 43.96823 | -0.91135 | 34898 ft | 436 kts | 202° |
| 2026-05-08 16:04 | 43.91301 | -0.94614 | 34896 ft | 436 kts | 202° |
| 2026-05-08 16:05 | 43.85819 | -0.98061 | 34898 ft | 435 kts | 202° |
| 2026-05-08 16:05 | 43.80308 | -1.01519 | 34899 ft | 435 kts | 202° |
| 2026-05-08 16:06 | 43.74792 | -1.04974 | 34887 ft | 435 kts | 202° |
| 2026-05-08 16:06 | 43.69276 | -1.08421 | 34889 ft | 435 kts | 202° |
| 2026-05-08 16:07 | 43.63754 | -1.11863 | 34888 ft | 435 kts | 202° |
| 2026-05-08 16:07 | 43.58239 | -1.15296 | 34891 ft | 435 kts | 202° |
| 2026-05-08 16:08 | 43.52724 | -1.18723 | 34888 ft | 434 kts | 202° |
| 2026-05-08 16:08 | 43.47218 | -1.22136 | 34889 ft | 434 kts | 202° |
| 2026-05-08 16:09 | 43.41698 | -1.25552 | 34887 ft | 434 kts | 202° |
| 2026-05-08 16:09 | 43.36184 | -1.28955 | 34891 ft | 434 kts | 202° |
| 2026-05-08 16:10 | 43.30673 | -1.32351 | 34889 ft | 434 kts | 202° |
| 2026-05-08 16:10 | 43.25209 | -1.35713 | 34892 ft | 433 kts | 202° |
| 2026-05-08 16:11 | 43.19705 | -1.39090 | 34886 ft | 433 kts | 202° |
| 2026-05-08 16:11 | 43.14202 | -1.42463 | 34894 ft | 433 kts | 202° |
| 2026-05-08 16:12 | 43.08707 | -1.45822 | 34898 ft | 432 kts | 202° |
| 2026-05-08 16:12 | 43.03271 | -1.49366 | 34898 ft | 433 kts | 206° |
| 2026-05-08 16:13 | 42.97934 | -1.53157 | 34900 ft | 432 kts | 206° |
| 2026-05-08 16:13 | 42.92602 | -1.56917 | 34907 ft | 431 kts | 206° |
| 2026-05-08 16:14 | 42.87265 | -1.60626 | 34911 ft | 431 kts | 206° |
| 2026-05-08 16:14 | 42.81920 | -1.64321 | 34906 ft | 430 kts | 206° |
| 2026-05-08 16:15 | 42.76589 | -1.68001 | 34918 ft | 429 kts | 206° |
| 2026-05-08 16:15 | 42.71261 | -1.71656 | 34923 ft | 429 kts | 206° |
| 2026-05-08 16:16 | 42.65904 | -1.75253 | 34912 ft | 429 kts | 206° |
| 2026-05-08 16:16 | 42.60559 | -1.78827 | 34914 ft | 428 kts | 206° |
| 2026-05-08 16:17 | 42.56129 | -1.81792 | 34915 ft | 427 kts | 207° |
| 2026-05-08 16:17 | 42.49896 | -1.85963 | 34928 ft | 427 kts | 207° |
| 2026-05-08 16:18 | 42.44579 | -1.89512 | 34935 ft | 426 kts | 207° |
| 2026-05-08 16:18 | 42.39264 | -1.93057 | 34931 ft | 426 kts | 207° |
| 2026-05-08 16:19 | 42.33958 | -1.96592 | 34941 ft | 425 kts | 207° |
| 2026-05-08 16:19 | 42.28648 | -2.00133 | 34939 ft | 425 kts | 207° |
| 2026-05-08 16:20 | 42.23343 | -2.03660 | 34933 ft | 425 kts | 207° |
| 2026-05-08 16:20 | 42.18035 | -2.07179 | 34940 ft | 425 kts | 207° |
| 2026-05-08 16:21 | 42.12735 | -2.10683 | 34936 ft | 424 kts | 207° |
| 2026-05-08 16:21 | 42.07429 | -2.14184 | 34925 ft | 424 kts | 207° |
| 2026-05-08 16:22 | 42.02316 | -2.17552 | 34922 ft | 424 kts | 207° |
| 2026-05-08 16:22 | 41.97017 | -2.21038 | 34921 ft | 424 kts | 207° |
| 2026-05-08 16:23 | 41.91709 | -2.24524 | 34928 ft | 424 kts | 207° |
| 2026-05-08 16:23 | 41.86440 | -2.27977 | 34924 ft | 424 kts | 207° |
| 2026-05-08 16:24 | 41.81137 | -2.31447 | 34929 ft | 424 kts | 207° |
| 2026-05-08 16:24 | 41.75827 | -2.34913 | 34932 ft | 424 kts | 207° |
| 2026-05-08 16:25 | 41.70525 | -2.38370 | 34930 ft | 424 kts | 207° |
| 2026-05-08 16:25 | 41.65223 | -2.41820 | 34929 ft | 424 kts | 207° |
| 2026-05-08 16:26 | 41.59929 | -2.45258 | 34948 ft | 423 kts | 208° |
| 2026-05-08 16:26 | 41.54641 | -2.48690 | 34942 ft | 422 kts | 208° |
| 2026-05-08 16:27 | 41.49361 | -2.52105 | 34950 ft | 422 kts | 208° |
| 2026-05-08 16:27 | 41.44073 | -2.55507 | 34948 ft | 422 kts | 208° |
| 2026-05-08 16:28 | 41.38976 | -2.58781 | 34943 ft | 421 kts | 208° |
| 2026-05-08 16:28 | 41.33701 | -2.62164 | 34948 ft | 420 kts | 208° |
| 2026-05-08 16:29 | 41.28765 | -2.66246 | 34952 ft | 417 kts | 217° |
| 2026-05-08 16:29 | 41.24011 | -2.70673 | 34948 ft | 417 kts | 217° |
| 2026-05-08 16:30 | 41.19255 | -2.75075 | 34941 ft | 417 kts | 217° |
| 2026-05-08 16:30 | 41.14499 | -2.79448 | 34933 ft | 416 kts | 217° |
| 2026-05-08 16:31 | 41.09736 | -2.83808 | 34930 ft | 416 kts | 217° |
| 2026-05-08 16:31 | 41.04976 | -2.88157 | 34933 ft | 415 kts | 217° |
| 2026-05-08 16:32 | 41.00222 | -2.92493 | 34938 ft | 414 kts | 217° |
| 2026-05-08 16:32 | 40.95476 | -2.96814 | 34928 ft | 414 kts | 217° |
| 2026-05-08 16:33 | 40.90740 | -3.01119 | 34935 ft | 413 kts | 217° |
| 2026-05-08 16:33 | 40.86012 | -3.05409 | 34926 ft | 412 kts | 217° |
| 2026-05-08 16:34 | 40.81446 | -3.09543 | 34917 ft | 412 kts | 217° |
| 2026-05-08 16:34 | 40.76725 | -3.13813 | 34932 ft | 411 kts | 217° |
| 2026-05-08 16:35 | 40.72012 | -3.18067 | 34920 ft | 410 kts | 217° |
| 2026-05-08 16:35 | 40.67309 | -3.22305 | 34914 ft | 409 kts | 217° |
| 2026-05-08 16:36 | 40.62618 | -3.26525 | 34918 ft | 408 kts | 217° |
| 2026-05-08 16:36 | 40.57965 | -3.30703 | 34920 ft | 407 kts | 217° |
| 2026-05-08 16:37 | 40.53281 | -3.34902 | 34918 ft | 407 kts | 217° |
| 2026-05-08 16:37 | 40.48605 | -3.39090 | 34918 ft | 406 kts | 217° |
| 2026-05-08 16:38 | 40.44009 | -3.43195 | 34921 ft | 406 kts | 218° |
| 2026-05-08 16:38 | 40.39335 | -3.47361 | 34920 ft | 405 kts | 218° |
| 2026-05-08 16:39 | 40.34709 | -3.51480 | 34907 ft | 404 kts | 218° |
| 2026-05-08 16:39 | 40.30058 | -3.55614 | 34915 ft | 403 kts | 218° |
| 2026-05-08 16:40 | 40.25417 | -3.59733 | 34917 ft | 402 kts | 218° |
| 2026-05-08 16:40 | 40.20786 | -3.63837 | 34919 ft | 402 kts | 218° |
| 2026-05-08 16:41 | 40.16160 | -3.67929 | 34916 ft | 401 kts | 218° |
| 2026-05-08 16:42 | 40.09236 | -3.74039 | 34915 ft | 400 kts | 218° |
| 2026-05-08 16:42 | 40.04627 | -3.78093 | 34917 ft | 399 kts | 218° |
| 2026-05-08 16:43 | 40.00021 | -3.82140 | 34911 ft | 400 kts | 218° |
| 2026-05-08 16:43 | 39.95404 | -3.86191 | 34906 ft | 399 kts | 218° |
| 2026-05-08 16:44 | 39.90797 | -3.90226 | 34906 ft | 399 kts | 218° |
| 2026-05-08 16:44 | 39.86187 | -3.94259 | 34909 ft | 398 kts | 218° |
| 2026-05-08 16:45 | 39.81584 | -3.98280 | 34906 ft | 398 kts | 218° |
| 2026-05-08 16:45 | 39.77019 | -4.02261 | 34905 ft | 397 kts | 218° |
| 2026-05-08 16:46 | 39.72427 | -4.06257 | 34913 ft | 397 kts | 218° |
| 2026-05-08 16:46 | 39.67837 | -4.10254 | 34906 ft | 397 kts | 218° |
| 2026-05-08 16:47 | 39.63246 | -4.14249 | 34909 ft | 397 kts | 218° |
| 2026-05-08 16:47 | 39.59404 | -4.17589 | 34905 ft | 397 kts | 218° |
| 2026-05-08 16:48 | 39.54850 | -4.21542 | 34915 ft | 396 kts | 218° |
| 2026-05-08 16:48 | 39.50268 | -4.25512 | 34911 ft | 396 kts | 218° |
| 2026-05-08 16:49 | 39.45698 | -4.29466 | 34900 ft | 395 kts | 218° |
| 2026-05-08 16:49 | 39.41134 | -4.33408 | 34897 ft | 393 kts | 218° |
| 2026-05-08 16:50 | 39.36587 | -4.37327 | 34894 ft | 392 kts | 218° |
| 2026-05-08 16:50 | 39.32059 | -4.41228 | 34898 ft | 391 kts | 218° |
| 2026-05-08 16:51 | 39.27541 | -4.45113 | 34893 ft | 389 kts | 218° |
| 2026-05-08 16:51 | 39.23041 | -4.48973 | 34896 ft | 387 kts | 218° |
| 2026-05-08 16:52 | 39.18556 | -4.52809 | 34891 ft | 386 kts | 218° |
| 2026-05-08 16:52 | 39.14079 | -4.56626 | 34885 ft | 385 kts | 218° |
| 2026-05-08 16:53 | 39.07389 | -4.62320 | 34883 ft | 383 kts | 219° |
| 2026-05-08 16:53 | 39.02974 | -4.66073 | 34889 ft | 382 kts | 219° |
| 2026-05-08 16:54 | 38.98542 | -4.69833 | 34884 ft | 381 kts | 218° |
| 2026-05-08 16:54 | 38.94129 | -4.73569 | 34876 ft | 379 kts | 219° |
| 2026-05-08 16:55 | 38.89735 | -4.77287 | 34880 ft | 378 kts | 219° |
| 2026-05-08 16:55 | 38.85348 | -4.80994 | 34880 ft | 377 kts | 219° |
| 2026-05-08 16:56 | 38.80964 | -4.84692 | 34877 ft | 377 kts | 219° |
| 2026-05-08 16:56 | 38.76585 | -4.88384 | 34864 ft | 377 kts | 219° |
| 2026-05-08 16:57 | 38.72204 | -4.92068 | 34864 ft | 376 kts | 219° |
| 2026-05-08 16:57 | 38.67881 | -4.95693 | 34858 ft | 366 kts | 219° |
| 2026-05-08 16:58 | 38.63681 | -4.99218 | 34854 ft | 360 kts | 219° |
| 2026-05-08 16:58 | 38.61580 | -5.00981 | 34649 ft | 365 kts | 219° |
| 2026-05-08 16:58 | 38.59453 | -5.02765 | 34396 ft | 365 kts | 219° |
| 2026-05-08 16:59 | 38.57336 | -5.04537 | 33987 ft | 362 kts | 219° |
| 2026-05-08 16:59 | 38.55238 | -5.06290 | 33558 ft | 359 kts | 219° |
| 2026-05-08 16:59 | 38.53144 | -5.08039 | 33144 ft | 360 kts | 219° |
| 2026-05-08 16:59 | 38.51035 | -5.09780 | 32712 ft | 363 kts | 217° |
| 2026-05-08 17:00 | 38.48793 | -5.11323 | 32292 ft | 371 kts | 213° |
| 2026-05-08 17:00 | 38.46447 | -5.12798 | 31854 ft | 380 kts | 212° |
| 2026-05-08 17:00 | 38.44050 | -5.14274 | 31400 ft | 385 kts | 211° |
| 2026-05-08 17:00 | 38.41627 | -5.15758 | 30930 ft | 387 kts | 211° |
| 2026-05-08 17:01 | 38.39195 | -5.17248 | 30479 ft | 389 kts | 211° |
| 2026-05-08 17:01 | 38.36746 | -5.18753 | 30014 ft | 391 kts | 211° |
| 2026-05-08 17:01 | 38.34290 | -5.20266 | 29533 ft | 394 kts | 211° |
| 2026-05-08 17:01 | 38.31815 | -5.21795 | 29050 ft | 396 kts | 210° |
| 2026-05-08 17:02 | 38.29328 | -5.23333 | 28573 ft | 399 kts | 210° |
| 2026-05-08 17:02 | 38.26825 | -5.24880 | 28065 ft | 401 kts | 210° |
| 2026-05-08 17:02 | 38.24305 | -5.26439 | 27561 ft | 403 kts | 210° |
| 2026-05-08 17:02 | 38.21777 | -5.28001 | 27065 ft | 405 kts | 210° |
| 2026-05-08 17:03 | 38.19236 | -5.29569 | 26561 ft | 406 kts | 210° |
| 2026-05-08 17:03 | 38.16689 | -5.31139 | 26055 ft | 408 kts | 210° |
| 2026-05-08 17:03 | 38.14134 | -5.32714 | 25555 ft | 409 kts | 209° |
| 2026-05-08 17:03 | 38.11567 | -5.34294 | 25041 ft | 410 kts | 209° |
| 2026-05-08 17:04 | 38.08998 | -5.35874 | 24525 ft | 411 kts | 209° |
| 2026-05-08 17:04 | 38.06435 | -5.37450 | 24017 ft | 407 kts | 209° |
| 2026-05-08 17:04 | 38.03911 | -5.38998 | 23517 ft | 399 kts | 209° |
| 2026-05-08 17:04 | 38.01463 | -5.40499 | 23036 ft | 394 kts | 209° |
| 2026-05-08 17:05 | 37.99015 | -5.42000 | 22526 ft | 387 kts | 209° |
| 2026-05-08 17:05 | 37.96610 | -5.43473 | 22078 ft | 380 kts | 209° |
| 2026-05-08 17:05 | 37.94246 | -5.44922 | 21619 ft | 374 kts | 208° |
| 2026-05-08 17:05 | 37.91926 | -5.46342 | 21142 ft | 368 kts | 208° |
| 2026-05-08 17:06 | 37.89638 | -5.47742 | 20676 ft | 362 kts | 208° |
| 2026-05-08 17:06 | 37.87378 | -5.49125 | 20250 ft | 359 kts | 208° |
| 2026-05-08 17:06 | 37.85144 | -5.50490 | 19805 ft | 355 kts | 208° |
| 2026-05-08 17:06 | 37.82927 | -5.51844 | 19372 ft | 352 kts | 208° |
| 2026-05-08 17:07 | 37.80723 | -5.53191 | 18936 ft | 350 kts | 208° |
| 2026-05-08 17:07 | 37.78534 | -5.54526 | 18508 ft | 348 kts | 208° |
| 2026-05-08 17:07 | 37.76362 | -5.55850 | 18069 ft | 346 kts | 208° |
| 2026-05-08 17:07 | 37.74197 | -5.57169 | 17663 ft | 344 kts | 208° |
| 2026-05-08 17:08 | 37.72048 | -5.58477 | 17232 ft | 341 kts | 208° |
| 2026-05-08 17:08 | 37.69930 | -5.59764 | 16816 ft | 336 kts | 208° |
| 2026-05-08 17:08 | 37.67836 | -5.61037 | 16405 ft | 332 kts | 208° |
| 2026-05-08 17:08 | 37.65791 | -5.62279 | 16005 ft | 328 kts | 208° |
| 2026-05-08 17:09 | 37.63745 | -5.63522 | 15607 ft | 325 kts | 208° |
| 2026-05-08 17:09 | 37.61685 | -5.64772 | 15209 ft | 322 kts | 207° |
| 2026-05-08 17:09 | 37.59700 | -5.65975 | 14820 ft | 320 kts | 207° |
| 2026-05-08 17:09 | 37.57717 | -5.67177 | 14426 ft | 313 kts | 207° |
| 2026-05-08 17:10 | 37.55778 | -5.68351 | 14051 ft | 305 kts | 207° |
| 2026-05-08 17:10 | 37.53880 | -5.69500 | 13684 ft | 299 kts | 207° |
| 2026-05-08 17:10 | 37.52026 | -5.70623 | 13329 ft | 293 kts | 207° |
| 2026-05-08 17:10 | 37.50209 | -5.71722 | 13033 ft | 285 kts | 207° |
| 2026-05-08 17:11 | 37.48440 | -5.72791 | 12725 ft | 279 kts | 207° |
| 2026-05-08 17:11 | 37.46701 | -5.73842 | 12406 ft | 275 kts | 207° |
| 2026-05-08 17:11 | 37.44981 | -5.74880 | 12091 ft | 273 kts | 207° |
| 2026-05-08 17:11 | 37.43274 | -5.75910 | 11772 ft | 272 kts | 207° |
| 2026-05-08 17:12 | 37.41529 | -5.76832 | 11445 ft | 272 kts | 201° |
| 2026-05-08 17:12 | 37.39735 | -5.77583 | 11127 ft | 272 kts | 199° |
| 2026-05-08 17:12 | 37.37930 | -5.78295 | 10804 ft | 271 kts | 199° |
| 2026-05-08 17:12 | 37.36127 | -5.79006 | 10481 ft | 271 kts | 199° |
| 2026-05-08 17:13 | 37.34333 | -5.79718 | 10206 ft | 270 kts | 199° |
| 2026-05-08 17:13 | 37.32574 | -5.80423 | 10085 ft | 261 kts | 199° |
| 2026-05-08 17:13 | 37.30858 | -5.81115 | 9863 ft | 258 kts | 199° |
| 2026-05-08 17:13 | 37.29154 | -5.81806 | 9579 ft | 257 kts | 198° |
| 2026-05-08 17:14 | 37.27455 | -5.82496 | 9291 ft | 257 kts | 198° |
| 2026-05-08 17:14 | 37.25778 | -5.83179 | 9003 ft | 257 kts | 198° |
| 2026-05-08 17:14 | 37.24062 | -5.83878 | 8715 ft | 262 kts | 198° |
| 2026-05-08 17:14 | 37.22311 | -5.84592 | 8425 ft | 267 kts | 198° |
| 2026-05-08 17:15 | 37.20543 | -5.85313 | 8119 ft | 267 kts | 198° |
| 2026-05-08 17:15 | 37.18776 | -5.86034 | 7818 ft | 267 kts | 198° |
| 2026-05-08 17:15 | 37.17015 | -5.86753 | 7522 ft | 266 kts | 198° |
| 2026-05-08 17:15 | 37.15284 | -5.87458 | 7221 ft | 266 kts | 198° |
| 2026-05-08 17:16 | 37.13529 | -5.88172 | 6934 ft | 263 kts | 198° |
| 2026-05-08 17:16 | 37.11804 | -5.88873 | 6620 ft | 258 kts | 198° |
| 2026-05-08 17:16 | 37.10113 | -5.89563 | 6334 ft | 253 kts | 197° |
| 2026-05-08 17:16 | 37.08457 | -5.90238 | 6063 ft | 248 kts | 198° |
| 2026-05-08 17:17 | 37.06827 | -5.90902 | 5793 ft | 244 kts | 197° |
| 2026-05-08 17:17 | 37.05226 | -5.91553 | 5538 ft | 240 kts | 197° |
| 2026-05-08 17:17 | 37.03650 | -5.92192 | 5278 ft | 235 kts | 197° |
| 2026-05-08 17:17 | 37.02112 | -5.92815 | 5042 ft | 228 kts | 196° |
| 2026-05-08 17:18 | 37.00617 | -5.93360 | 4790 ft | 219 kts | 196° |
| 2026-05-08 17:18 | 36.99216 | -5.93940 | 4547 ft | 209 kts | 198° |
| 2026-05-08 17:18 | 36.97880 | -5.94559 | 4296 ft | 200 kts | 200° |
| 2026-05-08 17:18 | 36.96607 | -5.95176 | 4088 ft | 194 kts | 200° |
| 2026-05-08 17:19 | 36.95351 | -5.95787 | 3870 ft | 193 kts | 200° |
| 2026-05-08 17:19 | 36.94105 | -5.96396 | 3655 ft | 193 kts | 200° |
| 2026-05-08 17:19 | 36.92866 | -5.97003 | 3459 ft | 190 kts | 199° |
| 2026-05-08 17:19 | 36.91631 | -5.97607 | 3248 ft | 191 kts | 199° |
| 2026-05-08 17:20 | 36.90415 | -5.98203 | 3066 ft | 184 kts | 199° |
| 2026-05-08 17:20 | 36.89227 | -5.98783 | 2970 ft | 186 kts | 199° |
| 2026-05-08 17:20 | 36.88046 | -5.99363 | 2748 ft | 177 kts | 199° |
| 2026-05-08 17:20 | 36.86925 | -5.99912 | 2500 ft | 169 kts | 199° |
| 2026-05-08 17:21 | 36.85851 | -6.00438 | 2286 ft | 163 kts | 199° |
| 2026-05-08 17:21 | 36.84804 | -6.00949 | 2077 ft | 161 kts | 200° |
| 2026-05-08 17:21 | 36.83748 | -6.01465 | 1870 ft | 164 kts | 200° |
| 2026-05-08 17:21 | 36.82678 | -6.01995 | 1637 ft | 165 kts | 201° |
| 2026-05-08 17:22 | 36.81657 | -6.02537 | 1564 ft | 150 kts | 202° |
| 2026-05-08 17:22 | 36.80699 | -6.02987 | 1298 ft | 150 kts | 199° |
| 2026-05-08 17:22 | 36.79729 | -6.03404 | 1016 ft | 146 kts | 199° |
| 2026-05-08 17:22 | 36.78793 | -6.03861 | 762 ft | 142 kts | 202° |
| 2026-05-08 17:23 | 36.77877 | -6.04350 | 554 ft | 146 kts | 200° |
| 2026-05-08 17:23 | 36.76943 | -6.04794 | 442 ft | 142 kts | 200° |
| 2026-05-08 17:23 | 36.76022 | -6.05239 | 266 ft | 141 kts | 201° |
| 2026-05-08 17:23 | 36.75111 | -6.05693 | 97 ft | 137 kts | 200° |
| 2026-05-08 17:24 | 36.74363 | -6.06057 | 85 ft | 86 kts | 202° |
| 2026-05-08 17:24 | 36.73948 | -6.06262 | 83 ft | 56 kts | 201° |
| 2026-05-08 17:24 | 36.73666 | -6.06398 | 82 ft | 36 kts | 201° |
| 2026-05-08 17:24 | 36.73531 | -6.06505 | 78 ft | 18 kts | 250° |
| 2026-05-08 17:25 | 36.73535 | -6.06564 | 81 ft | 0 kts | 287° |
| 2026-05-08 17:25 | 36.73540 | -6.06583 | 82 ft | 8 kts | 289° |
| 2026-05-08 17:25 | 36.73599 | -6.06645 | 83 ft | 14 kts | 1° |
| 2026-05-08 17:26 | 36.73704 | -6.06600 | 83 ft | 18 kts | 21° |
| 2026-05-08 17:26 | 36.73823 | -6.06543 | 83 ft | 18 kts | 21° |
| 2026-05-08 17:26 | 36.73938 | -6.06486 | 84 ft | 18 kts | 21° |
| 2026-05-08 17:26 | 36.74050 | -6.06432 | 84 ft | 17 kts | 21° |
| 2026-05-08 17:27 | 36.74158 | -6.06379 | 84 ft | 16 kts | 21° |
| 2026-05-08 17:27 | 36.74262 | -6.06329 | 84 ft | 16 kts | 21° |
| 2026-05-08 17:27 | 36.74361 | -6.06280 | 84 ft | 15 kts | 21° |
| 2026-05-08 17:27 | 36.74456 | -6.06233 | 84 ft | 14 kts | 21° |
| 2026-05-08 17:28 | 36.74547 | -6.06189 | 84 ft | 14 kts | 21° |
| 2026-05-08 17:28 | 36.74637 | -6.06144 | 84 ft | 15 kts | 21° |
| 2026-05-08 17:28 | 36.74726 | -6.06115 | 84 ft | 11 kts | 345° |
| 2026-05-08 17:28 | 36.74769 | -6.06192 | 84 ft | 11 kts | 291° |
| 2026-05-08 17:29 | 36.74807 | -6.06265 | 83 ft | 10 kts | 332° |
| 2026-05-08 17:29 | 36.74856 | -6.06270 | 83 ft | 5 kts | 331° |
| 2026-05-08 17:29 | 36.74876 | -6.06308 | 83 ft | 5 kts | 295° |
| 2026-05-08 17:29 | 36.74888 | -6.06345 | 83 ft | 0 kts | 292° |